createdAt,value
2023-01-31T00:01:57.968Z,3.17
2023-01-31T00:04:27.358Z,3.27
2023-01-31T00:06:55.295Z,2.87
2023-01-31T00:09:23.322Z,3.43
2023-01-31T00:11:51.284Z,3.90
2023-01-31T00:14:21.064Z,3.47
2023-01-31T00:16:49.174Z,2.77
2023-01-31T00:19:17.242Z,3.10
2023-01-31T00:21:46.449Z,2.63
2023-01-31T00:24:15.072Z,2.90
2023-01-31T00:26:43.138Z,3.70
2023-01-31T00:29:11.337Z,3.20
2023-01-31T00:31:39.900Z,2.90
2023-01-31T00:34:08.185Z,3.50
2023-01-31T00:36:37.614Z,3.13
2023-01-31T00:39:08.527Z,2.90
2023-01-31T00:41:38.477Z,3.10
2023-01-31T00:44:07.327Z,3.03
2023-01-31T00:46:36.189Z,2.90
2023-01-31T00:49:04.829Z,2.90
2023-01-31T00:51:32.800Z,2.73
2023-01-31T00:54:00.776Z,3.00
2023-01-31T00:56:30.042Z,2.73
2023-01-31T00:58:58.513Z,2.90
2023-01-31T01:01:28.549Z,2.83
2023-01-31T01:03:58.109Z,2.53
2023-01-31T01:06:26.823Z,2.57
2023-01-31T01:08:56.067Z,2.67
2023-01-31T01:11:28.984Z,3.03
2023-01-31T01:13:59.168Z,2.50
2023-01-31T01:16:29.605Z,3.00
2023-01-31T01:18:57.463Z,2.63
2023-01-31T01:21:28.675Z,2.63
2023-01-31T01:23:59.130Z,2.90
2023-01-31T01:26:30.735Z,2.33
2023-01-31T01:29:01.584Z,2.67
2023-01-31T01:31:32.619Z,2.57
2023-01-31T01:34:03.737Z,2.60
2023-01-31T01:36:34.673Z,2.37
2023-01-31T01:39:03.350Z,2.70
2023-01-31T01:41:33.490Z,2.97
2023-01-31T01:44:03.864Z,2.57
2023-01-31T01:46:34.467Z,2.50
2023-01-31T01:49:06.761Z,3.20
2023-01-31T01:51:36.105Z,2.97
2023-01-31T01:54:10.621Z,2.90
2023-01-31T01:56:42.989Z,3.13
2023-01-31T01:59:18.508Z,2.90
2023-01-31T02:01:47.484Z,3.50
2023-01-31T02:04:20.167Z,3.00
2023-01-31T02:06:48.462Z,3.53
2023-01-31T02:09:23.153Z,3.00
2023-01-31T02:11:51.843Z,2.97
2023-01-31T02:14:23.624Z,3.47
2023-01-31T02:16:51.591Z,2.90
2023-01-31T02:19:25.653Z,3.10
2023-01-31T02:22:11.070Z,3.07
2023-01-31T02:25:04.393Z,3.73
2023-01-31T02:28:04.678Z,3.40
2023-01-31T02:31:12.702Z,3.30
2023-01-31T02:33:50.394Z,3.93
2023-01-31T02:36:30.663Z,3.80
2023-01-31T02:39:08.328Z,3.10
2023-01-31T02:41:44.083Z,3.50
2023-01-31T02:44:38.462Z,3.53
2023-01-31T02:47:13.385Z,3.17
2023-01-31T02:49:49.580Z,3.77
2023-01-31T02:52:25.505Z,3.60
2023-01-31T02:55:25.685Z,3.80
2023-01-31T02:57:55.724Z,3.27
2023-01-31T03:00:25.029Z,4.20
2023-01-31T03:02:53.147Z,3.77
2023-01-31T03:05:23.210Z,3.60
2023-01-31T03:07:55.171Z,3.83
2023-01-31T03:10:39.575Z,3.40
2023-01-31T03:13:24.242Z,3.17
2023-01-31T03:16:20.104Z,3.57
2023-01-31T03:18:54.416Z,3.57
2023-01-31T03:21:29.467Z,3.80
2023-01-31T03:23:58.777Z,3.40
2023-01-31T03:26:28.405Z,3.40
2023-01-31T03:28:58.760Z,3.23
2023-01-31T03:31:31.048Z,3.17
2023-01-31T03:34:03.032Z,3.10
2023-01-31T03:36:39.588Z,3.20
2023-01-31T03:39:36.054Z,4.00
2023-01-31T03:42:09.141Z,3.30
2023-01-31T03:44:43.700Z,3.50
2023-01-31T03:47:17.228Z,2.97
2023-01-31T03:49:47.345Z,3.10
2023-01-31T03:52:23.332Z,3.63
2023-01-31T03:54:57.447Z,2.90
2023-01-31T03:57:29.969Z,3.30
2023-01-31T04:00:00.849Z,3.03
2023-01-31T04:02:34.217Z,3.03
2023-01-31T04:05:07.649Z,3.50
2023-01-31T04:07:38.637Z,3.13
2023-01-31T04:10:13.187Z,3.70
2023-01-31T04:12:41.407Z,3.27
2023-01-31T04:15:11.337Z,3.90
2023-01-31T04:17:39.672Z,3.20
2023-01-31T04:20:09.605Z,3.50
2023-01-31T04:22:38.813Z,3.00
2023-01-31T04:25:07.968Z,3.10
2023-01-31T04:27:35.937Z,2.97
2023-01-31T04:30:04.047Z,3.30
2023-01-31T04:32:31.992Z,3.00
2023-01-31T04:35:02.074Z,3.67
2023-01-31T04:37:30.635Z,3.70
2023-01-31T04:39:59.813Z,3.13
2023-01-31T04:42:29.138Z,3.00
2023-01-31T04:44:57.225Z,3.33
2023-01-31T04:47:25.177Z,3.03
2023-01-31T04:49:53.044Z,3.30
2023-01-31T04:52:20.965Z,2.67
2023-01-31T04:54:48.825Z,3.20
2023-01-31T04:57:18.220Z,3.67
2023-01-31T04:59:46.227Z,2.87
2023-01-31T05:02:15.106Z,3.23
2023-01-31T05:04:43.115Z,2.90
2023-01-31T05:07:11.027Z,3.07
2023-01-31T05:09:38.973Z,3.17
2023-01-31T05:12:07.913Z,3.10
2023-01-31T05:14:37.183Z,3.50
2023-01-31T05:17:05.737Z,3.33
2023-01-31T05:19:33.664Z,3.50
2023-01-31T05:22:01.619Z,3.60
2023-01-31T05:24:31.466Z,3.63
2023-01-31T05:27:01.591Z,3.27
2023-01-31T05:29:31.044Z,3.70
2023-01-31T05:32:02.319Z,3.63
2023-01-31T05:34:33.085Z,3.60
2023-01-31T05:37:02.437Z,3.17
2023-01-31T05:39:31.271Z,3.43
2023-01-31T05:41:59.438Z,3.43
2023-01-31T05:44:27.425Z,3.27
2023-01-31T05:46:55.341Z,3.57
2023-01-31T05:49:24.551Z,3.33
2023-01-31T05:51:52.471Z,3.43
2023-01-31T05:54:20.458Z,3.43
2023-01-31T05:56:48.493Z,3.90
2023-01-31T05:59:16.505Z,3.63
2023-01-31T06:01:44.478Z,3.43
2023-01-31T06:04:12.611Z,3.80
2023-01-31T06:06:42.504Z,3.73
2023-01-31T06:09:11.709Z,3.50
2023-01-31T06:11:39.772Z,4.27
2023-01-31T06:14:07.665Z,3.87
2023-01-31T06:16:35.829Z,3.93
2023-01-31T06:19:04.055Z,3.60
2023-01-31T06:21:32.078Z,3.70
2023-01-31T06:24:01.374Z,3.47
2023-01-31T06:26:29.446Z,3.30
2023-01-31T06:28:57.860Z,3.47
2023-01-31T06:31:26.276Z,3.43
2023-01-31T06:33:54.311Z,3.57
2023-01-31T06:36:22.209Z,3.60
2023-01-31T06:38:51.252Z,3.97
2023-01-31T06:41:21.499Z,3.80
2023-01-31T06:43:49.824Z,3.43
2023-01-31T06:46:17.931Z,3.80
2023-01-31T06:48:45.936Z,3.70
2023-01-31T06:51:13.803Z,3.73
2023-01-31T06:53:41.715Z,3.80
2023-01-31T06:56:10.401Z,3.73
2023-01-31T06:58:40.035Z,3.67
2023-01-31T07:01:08.326Z,3.97
2023-01-31T07:03:36.562Z,3.93
2023-01-31T07:06:05.113Z,3.57
2023-01-31T07:08:35.941Z,3.60
2023-01-31T07:11:05.014Z,4.40
2023-01-31T07:13:33.368Z,3.47
2023-01-31T07:16:02.749Z,4.03
2023-01-31T07:18:31.299Z,4.13
2023-01-31T07:20:59.496Z,4.20
2023-01-31T07:23:27.421Z,3.80
2023-01-31T07:25:55.369Z,3.83
2023-01-31T07:28:23.255Z,3.77
2023-01-31T07:30:52.054Z,3.70
2023-01-31T07:33:22.578Z,4.33
2023-01-31T07:35:51.363Z,3.77
2023-01-31T07:38:21.075Z,3.70
2023-01-31T07:40:50.422Z,3.57
2023-01-31T07:43:19.051Z,3.70
2023-01-31T07:45:47.694Z,4.43
2023-01-31T07:48:16.317Z,3.30
2023-01-31T07:50:46.412Z,3.43
2023-01-31T07:53:15.013Z,4.30
2023-01-31T07:55:47.668Z,3.60
2023-01-31T07:58:17.002Z,3.53
2023-01-31T08:01:03.114Z,3.30
2023-01-31T08:03:35.379Z,3.50
2023-01-31T08:06:09.748Z,3.50
2023-01-31T08:08:38.576Z,4.33
2023-01-31T08:11:07.633Z,3.30
2023-01-31T08:13:37.074Z,3.47
2023-01-31T08:16:06.396Z,3.27
2023-01-31T08:18:34.737Z,3.00
2023-01-31T08:21:03.431Z,2.90
2023-01-31T08:23:38.131Z,2.77
2023-01-31T08:26:10.621Z,3.23
2023-01-31T08:28:39.621Z,2.60
2023-01-31T08:31:09.611Z,2.70
2023-01-31T08:33:38.312Z,2.93
2023-01-31T08:36:10.950Z,2.57
2023-01-31T08:38:40.412Z,2.23
2023-01-31T08:41:08.401Z,2.73
2023-01-31T08:43:52.948Z,2.33
2023-01-31T08:46:23.413Z,2.47
2023-01-31T08:48:51.455Z,2.40
2023-01-31T08:51:19.391Z,2.67
2023-01-31T08:53:48.637Z,2.83
2023-01-31T08:56:17.256Z,2.33
2023-01-31T08:58:46.239Z,2.73
2023-01-31T09:01:15.893Z,2.30
2023-01-31T09:03:45.404Z,2.40
2023-01-31T09:06:16.461Z,2.40
2023-01-31T09:08:44.758Z,2.50
2023-01-31T09:11:17.050Z,2.07
2023-01-31T09:13:45.530Z,2.40
2023-01-31T09:16:15.266Z,2.20
2023-01-31T09:18:44.107Z,2.43
2023-01-31T09:21:14.266Z,2.87
2023-01-31T09:23:43.019Z,3.23
2023-01-31T09:26:13.064Z,2.57
2023-01-31T09:28:42.747Z,2.83
2023-01-31T09:31:13.475Z,3.00
2023-01-31T09:33:42.098Z,3.17
2023-01-31T09:36:11.880Z,2.70
2023-01-31T09:38:40.200Z,3.00
2023-01-31T09:41:20.432Z,2.67
2023-01-31T09:43:53.031Z,3.17
2023-01-31T09:46:24.893Z,2.80
2023-01-31T09:49:00.652Z,2.73
2023-01-31T09:51:30.779Z,2.97
2023-01-31T09:54:08.397Z,2.80
2023-01-31T09:56:44.104Z,3.07
2023-01-31T09:59:22.115Z,2.97
2023-01-31T10:01:58.994Z,3.00
2023-01-31T10:04:45.762Z,2.77
2023-01-31T10:07:19.339Z,2.70
2023-01-31T10:09:53.249Z,2.40
2023-01-31T10:12:29.450Z,2.70
2023-01-31T10:15:01.496Z,2.90
2023-01-31T10:17:35.055Z,2.50
2023-01-31T10:20:09.531Z,2.63
2023-01-31T10:22:41.784Z,2.63
2023-01-31T10:25:22.791Z,2.90
2023-01-31T10:27:55.702Z,2.83
2023-01-31T10:30:31.338Z,2.80
2023-01-31T10:33:04.900Z,2.40
2023-01-31T10:35:38.224Z,2.40
2023-01-31T10:38:15.097Z,2.67
2023-01-31T10:40:45.900Z,2.33
2023-01-31T10:43:19.506Z,2.67
2023-01-31T10:45:47.579Z,2.80
2023-01-31T10:48:18.089Z,2.50
2023-01-31T10:50:54.320Z,2.30
2023-01-31T10:53:37.884Z,2.40
2023-01-31T10:56:08.502Z,2.80
2023-01-31T10:58:38.819Z,2.50
2023-01-31T11:01:11.933Z,2.47
2023-01-31T11:03:40.010Z,2.67
2023-01-31T11:06:08.101Z,2.00
2023-01-31T11:08:41.543Z,2.43
2023-01-31T11:11:12.390Z,2.67
2023-01-31T11:13:41.821Z,2.43
2023-01-31T11:16:12.412Z,2.80
2023-01-31T11:18:47.147Z,2.30
2023-01-31T11:21:22.260Z,2.30
2023-01-31T11:23:51.258Z,3.17
2023-01-31T11:26:32.185Z,3.30
2023-01-31T11:29:03.412Z,2.33
2023-01-31T11:31:35.579Z,2.77
2023-01-31T11:34:05.113Z,2.43
2023-01-31T11:36:42.023Z,2.50
2023-01-31T11:39:29.761Z,2.60
2023-01-31T11:41:57.733Z,2.50
2023-01-31T11:44:27.009Z,2.93
2023-01-31T11:46:57.079Z,2.27
2023-01-31T11:49:34.188Z,2.40
2023-01-31T11:52:12.205Z,2.50
2023-01-31T11:54:44.666Z,2.10
2023-01-31T11:57:17.566Z,2.77
2023-01-31T11:59:51.175Z,2.50
2023-01-31T12:02:28.685Z,1.80
2023-01-31T12:04:57.263Z,2.63
2023-01-31T12:07:29.048Z,1.90
2023-01-31T12:09:57.371Z,2.67
2023-01-31T12:12:31.214Z,1.53
2023-01-31T12:15:05.916Z,1.77
2023-01-31T12:17:43.037Z,2.17
2023-01-31T12:20:28.033Z,1.97
2023-01-31T12:23:12.329Z,1.73
2023-01-31T12:26:05.633Z,1.83
2023-01-31T12:28:47.426Z,1.88
2023-01-31T12:31:54.978Z,1.90
2023-01-31T12:34:50.492Z,1.73
2023-01-31T12:37:38.702Z,2.03
2023-01-31T12:40:25.510Z,2.00
2023-01-31T12:43:00.355Z,1.80
2023-01-31T12:45:53.371Z,1.97
2023-01-31T12:48:47.730Z,1.80
2023-01-31T12:51:34.719Z,2.00
2023-01-31T12:54:18.623Z,1.87
2023-01-31T12:57:03.141Z,1.53
2023-01-31T12:59:49.384Z,1.90
2023-01-31T13:02:31.738Z,1.77
2023-01-31T13:05:08.886Z,2.17
2023-01-31T13:07:42.911Z,1.93
2023-01-31T13:10:25.255Z,1.93
2023-01-31T13:12:53.465Z,1.60
2023-01-31T13:15:30.272Z,1.90
2023-01-31T13:18:03.021Z,1.80
2023-01-31T13:20:36.951Z,1.80
2023-01-31T13:23:08.093Z,1.60
2023-01-31T13:25:40.342Z,1.60
2023-01-31T13:28:16.336Z,2.20
2023-01-31T13:30:51.657Z,2.23
2023-01-31T13:33:29.000Z,2.60
2023-01-31T13:36:07.696Z,1.83
2023-01-31T13:38:40.097Z,1.87
2023-01-31T13:41:14.056Z,2.00
2023-01-31T13:43:41.951Z,1.87
2023-01-31T13:46:12.715Z,2.00
2023-01-31T13:48:46.404Z,1.60
2023-01-31T13:51:25.257Z,1.83
2023-01-31T13:53:58.827Z,1.93
2023-01-31T13:56:29.645Z,1.67
2023-01-31T13:58:59.118Z,1.97
2023-01-31T14:01:29.716Z,1.93
2023-01-31T14:04:40.304Z,1.80
2023-01-31T14:07:25.050Z,1.87
2023-01-31T14:10:38.715Z,1.93
2023-01-31T14:13:40.940Z,2.10
2023-01-31T14:16:40.874Z,2.17
2023-01-31T14:19:47.541Z,1.70
2023-01-31T14:22:17.420Z,2.67
2023-01-31T14:25:14.757Z,2.07
2023-01-31T14:27:45.262Z,2.33
2023-01-31T14:30:27.482Z,2.07
2023-01-31T14:33:08.912Z,1.90
2023-01-31T14:36:04.981Z,2.10
2023-01-31T14:38:46.947Z,2.10
2023-01-31T14:41:25.934Z,2.40
2023-01-31T14:44:03.946Z,2.27
2023-01-31T14:46:46.042Z,2.07
2023-01-31T14:49:38.161Z,2.43
2023-01-31T14:52:29.626Z,2.50
2023-01-31T14:55:27.984Z,1.90
2023-01-31T14:57:59.961Z,2.33
2023-01-31T15:00:31.631Z,2.10
2023-01-31T15:03:06.747Z,2.00
2023-01-31T15:05:43.942Z,2.40
2023-01-31T15:08:37.509Z,3.03
2023-01-31T15:11:06.801Z,2.53
2023-01-31T15:13:47.120Z,2.27
2023-01-31T15:16:22.185Z,1.93
2023-01-31T15:18:53.508Z,2.00
2023-01-31T15:21:26.673Z,1.70
2023-01-31T15:23:56.107Z,2.27
2023-01-31T15:26:27.557Z,2.00
2023-01-31T15:28:58.745Z,2.10
2023-01-31T15:31:31.976Z,2.20
2023-01-31T15:34:04.907Z,1.90
2023-01-31T15:36:36.830Z,2.10
2023-01-31T15:39:17.762Z,2.83
2023-01-31T15:41:46.760Z,1.70
2023-01-31T15:44:19.426Z,2.60
2023-01-31T15:46:48.757Z,2.40
2023-01-31T15:49:38.413Z,3.20
2023-01-31T15:52:13.478Z,3.20
2023-01-31T15:54:51.845Z,3.23
2023-01-31T15:57:20.519Z,1.87
2023-01-31T15:59:49.922Z,2.00
2023-01-31T16:02:23.202Z,2.70
2023-01-31T16:04:51.371Z,1.97
2023-01-31T16:07:20.732Z,2.17
2023-01-31T16:09:49.597Z,1.97
2023-01-31T16:12:18.408Z,2.23
2023-01-31T16:14:49.363Z,2.00
2023-01-31T16:17:18.828Z,1.90
2023-01-31T16:19:50.951Z,1.60
2023-01-31T16:22:27.812Z,2.53
2023-01-31T16:24:57.912Z,2.37
2023-01-31T16:27:27.726Z,1.80
2023-01-31T16:29:59.383Z,2.30
2023-01-31T16:32:30.500Z,2.60
2023-01-31T16:34:59.811Z,2.10
2023-01-31T16:37:33.369Z,2.00
2023-01-31T16:40:05.100Z,1.83
2023-01-31T16:42:35.255Z,1.73
2023-01-31T16:45:04.859Z,1.90
2023-01-31T16:47:48.307Z,1.93
2023-01-31T16:50:42.879Z,1.67
2023-01-31T16:53:27.964Z,2.00
2023-01-31T16:56:19.437Z,2.00
2023-01-31T16:58:50.284Z,2.13
2023-01-31T17:01:23.184Z,2.03
2023-01-31T17:04:15.003Z,1.73
2023-01-31T17:06:43.745Z,2.30
2023-01-31T17:09:17.118Z,1.80
2023-01-31T17:11:47.397Z,2.00
2023-01-31T17:14:15.305Z,2.00
2023-01-31T17:16:44.611Z,2.00
2023-01-31T17:19:13.474Z,2.33
2023-01-31T17:21:42.655Z,2.13
2023-01-31T17:24:15.376Z,2.10
2023-01-31T17:26:44.394Z,2.47
2023-01-31T17:29:12.707Z,2.07
2023-01-31T17:31:41.981Z,1.90
2023-01-31T17:34:14.749Z,2.23
2023-01-31T17:36:43.557Z,1.83
2023-01-31T17:39:11.540Z,2.17
2023-01-31T17:41:41.100Z,2.43
2023-01-31T17:44:13.799Z,2.10
2023-01-31T17:46:42.223Z,2.30
2023-01-31T17:49:10.168Z,2.80
2023-01-31T17:51:39.616Z,2.20
2023-01-31T17:54:08.052Z,2.60
2023-01-31T17:56:36.026Z,2.30
2023-01-31T17:59:04.281Z,2.60
2023-01-31T18:01:33.180Z,2.50
2023-01-31T18:04:01.139Z,2.90
2023-01-31T18:06:29.281Z,2.17
2023-01-31T18:09:02.472Z,2.30
2023-01-31T18:11:30.417Z,2.53
2023-01-31T18:13:59.992Z,2.33
2023-01-31T18:16:27.923Z,2.50
2023-01-31T18:18:56.320Z,2.53
2023-01-31T18:21:25.399Z,2.47
2023-01-31T18:23:54.842Z,2.13
2023-01-31T18:26:25.482Z,2.50
2023-01-31T18:28:55.415Z,2.60
2023-01-31T18:31:23.517Z,3.30
2023-01-31T18:33:51.478Z,2.93
2023-01-31T18:36:21.035Z,2.33
2023-01-31T18:38:50.569Z,2.87
2023-01-31T18:41:21.654Z,3.77
2023-01-31T18:43:51.287Z,4.23
2023-01-31T18:46:19.282Z,2.47
2023-01-31T18:48:47.220Z,2.60
2023-01-31T18:51:16.493Z,2.53
2023-01-31T18:53:46.128Z,2.70
2023-01-31T18:56:17.009Z,2.93
2023-01-31T18:58:45.537Z,2.63
2023-01-31T19:01:16.655Z,2.77
2023-01-31T19:03:46.615Z,2.20
2023-01-31T19:06:16.239Z,2.60
2023-01-31T19:08:45.033Z,2.47
2023-01-31T19:11:14.452Z,2.47
2023-01-31T19:13:43.146Z,2.50
2023-01-31T19:16:15.383Z,2.47
2023-01-31T19:18:43.723Z,2.30
2023-01-31T19:21:16.046Z,2.40
2023-01-31T19:23:44.076Z,2.40
2023-01-31T19:26:12.767Z,2.30
2023-01-31T19:28:41.554Z,2.33
2023-01-31T19:31:11.798Z,2.43
2023-01-31T19:33:41.614Z,2.83
2023-01-31T19:36:10.672Z,2.17
2023-01-31T19:38:39.236Z,2.90
2023-01-31T19:41:08.774Z,2.40
2023-01-31T19:43:36.693Z,2.57
2023-01-31T19:46:05.349Z,2.47
2023-01-31T19:48:33.596Z,2.63
2023-01-31T19:51:07.590Z,2.23
2023-01-31T19:53:35.895Z,2.60
2023-01-31T19:56:04.393Z,2.43
2023-01-31T19:58:32.330Z,2.57
2023-01-31T20:01:02.030Z,2.90
2023-01-31T20:03:30.244Z,2.40
2023-01-31T20:06:03.922Z,2.50
2023-01-31T20:08:32.481Z,2.23
2023-01-31T20:11:00.555Z,2.23
2023-01-31T20:13:28.853Z,2.53
2023-01-31T20:15:59.601Z,2.40
2023-01-31T20:18:27.825Z,2.13
2023-01-31T20:20:56.027Z,2.33
2023-01-31T20:23:25.960Z,2.67
2023-01-31T20:25:54.260Z,3.17
2023-01-31T20:28:23.132Z,3.73
2023-01-31T20:30:51.718Z,3.70
2023-01-31T20:33:20.214Z,3.20
2023-01-31T20:35:49.297Z,3.53
2023-01-31T20:38:18.089Z,4.07
2023-01-31T20:40:51.926Z,2.63
2023-01-31T20:43:21.332Z,2.00
2023-01-31T20:45:49.370Z,2.53
2023-01-31T20:48:17.994Z,2.17
2023-01-31T20:50:54.478Z,1.93
2023-01-31T20:53:23.041Z,2.03
2023-01-31T20:55:57.857Z,2.47
2023-01-31T20:58:26.696Z,2.93
2023-01-31T21:00:55.337Z,2.33
2023-01-31T21:03:24.357Z,2.60
2023-01-31T21:05:52.768Z,1.60
2023-01-31T21:08:22.079Z,1.83
2023-01-31T21:10:51.022Z,1.90
2023-01-31T21:13:21.261Z,1.70
2023-01-31T21:15:52.300Z,1.50
2023-01-31T21:18:21.070Z,2.20
2023-01-31T21:20:49.139Z,2.17
2023-01-31T21:23:17.328Z,1.53
2023-01-31T21:25:45.304Z,1.73
2023-01-31T21:28:13.492Z,1.73
2023-01-31T21:30:42.996Z,1.90
2023-01-31T21:33:11.085Z,2.10
2023-01-31T21:35:38.987Z,2.10
2023-01-31T21:38:06.920Z,1.77
2023-01-31T21:40:35.068Z,1.93
2023-01-31T21:43:02.042Z,1.70
2023-01-31T21:45:42.084Z,1.80
2023-01-31T21:48:30.318Z,2.10
2023-01-31T21:50:58.779Z,2.17
2023-01-31T21:53:29.086Z,2.00
2023-01-31T21:56:01.982Z,1.97
2023-01-31T21:58:29.995Z,2.37
2023-01-31T22:01:03.597Z,2.37
2023-01-31T22:03:32.976Z,2.53
2023-01-31T22:06:05.442Z,2.40
2023-01-31T22:08:33.327Z,2.40
2023-01-31T22:11:02.331Z,2.23
2023-01-31T22:13:30.655Z,2.73
2023-01-31T22:16:02.367Z,2.50
2023-01-31T22:18:32.971Z,2.47
2023-01-31T22:21:05.438Z,2.40
2023-01-31T22:23:34.750Z,2.90
2023-01-31T22:26:10.934Z,2.70
2023-01-31T22:28:39.616Z,2.40
2023-01-31T22:31:09.141Z,2.60
2023-01-31T22:33:41.752Z,2.80
2023-01-31T22:36:11.530Z,2.60
2023-01-31T22:38:39.842Z,2.77
2023-01-31T22:41:09.587Z,2.70
2023-01-31T22:43:38.692Z,2.97
2023-01-31T22:46:07.786Z,3.10
2023-01-31T22:48:36.573Z,3.30
2023-01-31T22:51:07.775Z,3.03
2023-01-31T22:53:37.288Z,3.07
2023-01-31T22:56:07.791Z,2.77
2023-01-31T22:58:35.923Z,2.80
2023-01-31T23:01:04.201Z,3.50
2023-01-31T23:03:32.552Z,3.17
2023-01-31T23:06:00.472Z,3.17
2023-01-31T23:08:29.828Z,3.00
2023-01-31T23:10:57.722Z,3.47
2023-01-31T23:13:25.645Z,3.03
2023-01-31T23:15:53.807Z,3.20
2023-01-31T23:18:21.752Z,3.27
2023-01-31T23:20:49.625Z,3.70
2023-01-31T23:23:17.560Z,3.27
2023-01-31T23:25:47.721Z,3.33
2023-01-31T23:28:15.624Z,3.30
2023-01-31T23:30:46.590Z,3.10
2023-01-31T23:33:15.203Z,3.60
2023-01-31T23:35:43.077Z,3.10
2023-01-31T23:38:11.067Z,3.07
2023-01-31T23:40:38.982Z,3.53
2023-01-31T23:43:08.197Z,3.07
2023-01-31T23:45:36.119Z,3.00
2023-01-31T23:48:04.253Z,2.87
2023-01-31T23:50:32.224Z,3.27
2023-01-31T23:53:00.104Z,3.00
2023-01-31T23:55:27.978Z,2.90
2023-01-31T23:57:55.937Z,2.70
